»·PEaware :: N333ZA 0O2-KOXR

N333ZA :: 0O2-KOXR

FLIGHT INFORMATION

Flight Status: Arrived
Operator: Privately registered:
United States
More flights under this callsign
Pilot: Judd H. (29974)
Aircraft: CESSNA 210 CENTURION
(C210)
More flights by this aircraft type
Origin: 0O2 Baker
United States
Destination: KOXR Oxnard
United States
More flights between these airports :: More routes between these airports
Route: +DAG V394 BASAL V12 PMD V386 FIM
File this flight plan on PilotEdge
Remarks:
Altitude:
(Current/Filed)
16,000ft
Speed:
(Current/Filed)
150kts
Departed: 04-Nov-20 03:34 PM
Arrived: 04-Nov-20 04:39 PM
Distance/Time
Traveled:
167nm/1:04
Distance/Time
To Go:
Arrived

Flight Plot

Page will automatically refresh every two minutes.

Flight plan parsing failed; only flown route is shown


Map Options




Map Legend


Flown Route
Filed Route
Departure Airport
Arrival Airport
Navaid (VOR, NDB)
Fix

Horizontal Profiles

Position Reports

Time Latitude Longitude Heading Altitude Ground
Speed
04-Nov-20 15:16 35.287797 -116.081261 260 925ft 0kts
04-Nov-20 15:17 35.287797 -116.081261 260 925ft 0kts
04-Nov-20 15:18 35.287797 -116.081264 260 925ft 0kts
04-Nov-20 15:19 35.287797 -116.081267 260 925ft 0kts
04-Nov-20 15:20 35.287796 -116.081270 261 925ft 0kts
04-Nov-20 15:21 35.287796 -116.081272 261 925ft 0kts
04-Nov-20 15:21 35.287796 -116.081275 261 925ft 0kts
04-Nov-20 15:23 35.287795 -116.081278 262 925ft 0kts
04-Nov-20 15:23 35.287795 -116.081281 262 925ft 0kts
04-Nov-20 15:25 35.287795 -116.081284 262 925ft 0kts
04-Nov-20 15:25 35.287794 -116.081286 263 925ft 0kts
04-Nov-20 15:26 35.287794 -116.081289 263 925ft 0kts
04-Nov-20 15:27 35.287794 -116.081292 263 925ft 0kts
04-Nov-20 15:28 35.287794 -116.081295 264 925ft 0kts
04-Nov-20 15:30 35.287793 -116.081298 264 925ft 0kts
04-Nov-20 15:30 35.287793 -116.081301 264 925ft 0kts
04-Nov-20 15:31 35.287106 -116.081607 168 925ft 18kts
04-Nov-20 15:32 35.282322 -116.080172 23 925ft 1kts
04-Nov-20 15:33 35.298802 -116.087127 338 1232ft 105kts
04-Nov-20 15:34 35.311684 -116.068455 118 2586ft 93kts
04-Nov-20 15:35 35.286364 -116.078737 230 3413ft 132kts
04-Nov-20 15:36 35.264410 -116.116115 239 4442ft 133kts
04-Nov-20 15:37 35.242931 -116.154114 237 5516ft 140kts
04-Nov-20 15:38 35.218671 -116.191557 230 6632ft 143kts
04-Nov-20 15:39 35.192642 -116.229622 233 7678ft 146kts
04-Nov-20 15:40 35.167020 -116.266900 231 8864ft 140kts
04-Nov-20 15:41 35.142569 -116.303483 233 10064ft 136kts
04-Nov-20 15:42 35.119269 -116.340185 233 11165ft 140kts
04-Nov-20 15:43 35.093988 -116.378218 231 12178ft 147kts
04-Nov-20 15:44 35.067505 -116.417570 231 13182ft 152kts
04-Nov-20 15:45 35.040000 -116.457806 232 14186ft 154kts
04-Nov-20 15:46 35.013989 -116.499617 233 15190ft 155kts
04-Nov-20 15:47 34.986997 -116.541737 233 16038ft 166kts
04-Nov-20 15:48 34.952795 -116.591039 227 15972ft 203kts
04-Nov-20 15:49 34.915354 -116.640307 228 15977ft 196kts
04-Nov-20 15:50 34.879230 -116.690457 230 15968ft 195kts
04-Nov-20 15:51 34.843996 -116.740768 230 15961ft 195kts
04-Nov-20 15:52 34.808184 -116.790610 229 15959ft 195kts
04-Nov-20 15:53 34.770208 -116.842774 229 15957ft 204kts
04-Nov-20 15:54 34.751481 -116.904100 261 15979ft 194kts
04-Nov-20 15:55 34.743863 -116.968930 263 15980ft 193kts
04-Nov-20 15:56 34.736573 -117.033291 264 15987ft 192kts
04-Nov-20 15:57 34.732318 -117.098443 268 15999ft 192kts
04-Nov-20 15:58 34.728440 -117.163434 265 15971ft 193kts
04-Nov-20 15:59 34.720660 -117.228077 262 15972ft 193kts
04-Nov-20 16:00 34.712367 -117.292813 262 15974ft 193kts
04-Nov-20 16:01 34.704118 -117.357220 262 15979ft 193kts
04-Nov-20 16:02 34.697387 -117.422012 266 15978ft 193kts
04-Nov-20 16:03 34.691952 -117.487161 263 15976ft 193kts
04-Nov-20 16:04 34.685065 -117.552028 265 15974ft 193kts
04-Nov-20 16:05 34.678163 -117.616709 263 15971ft 193kts
04-Nov-20 16:06 34.670909 -117.681343 264 15969ft 193kts
04-Nov-20 16:07 34.664462 -117.746270 264 15967ft 193kts
04-Nov-20 16:08 34.658034 -117.811369 264 15982ft 204kts
04-Nov-20 16:09 34.651473 -117.878812 264 15952ft 196kts
04-Nov-20 16:10 34.645120 -117.944263 264 15953ft 193kts
04-Nov-20 16:11 34.639006 -118.006446 263 15951ft 193kts
04-Nov-20 16:12 34.629540 -118.070897 252 15950ft 194kts
04-Nov-20 16:13 34.609383 -118.131812 248 15950ft 194kts
04-Nov-20 16:14 34.588672 -118.192442 248 15949ft 194kts
04-Nov-20 16:15 34.567915 -118.253215 248 15947ft 194kts
04-Nov-20 16:16 34.547246 -118.313761 248 15945ft 194kts
04-Nov-20 16:17 34.527263 -118.374915 249 15855ft 199kts
04-Nov-20 16:18 34.506210 -118.440089 249 15168ft 211kts
04-Nov-20 16:19 34.484404 -118.505950 248 14473ft 211kts
04-Nov-20 16:20 34.462571 -118.570729 248 14017ft 200kts
04-Nov-20 16:21 34.441809 -118.632332 248 13893ft 194kts
04-Nov-20 16:22 34.421562 -118.692297 248 13872ft 192kts
04-Nov-20 16:23 34.401546 -118.751933 248 12905ft 181kts
04-Nov-20 16:24 34.383747 -118.804686 246 11890ft 160kts
04-Nov-20 16:25 34.366275 -118.852796 246 10889ft 153kts
04-Nov-20 16:26 34.333546 -118.879313 195 9842ft 155kts
04-Nov-20 16:27 34.290433 -118.880067 176 8528ft 155kts
04-Nov-20 16:28 34.246724 -118.875773 179 7029ft 158kts
04-Nov-20 16:29 34.202980 -118.875661 201 5460ft 158kts
04-Nov-20 16:30 34.197141 -118.921081 279 4548ft 148kts
04-Nov-20 16:31 34.197416 -118.973839 271 3749ft 162kts
04-Nov-20 16:32 34.197558 -119.023409 273 2850ft 129kts
04-Nov-20 16:33 34.199114 -119.063569 268 2257ft 126kts
04-Nov-20 16:34 34.199897 -119.108499 269 1550ft 135kts
04-Nov-20 16:35 34.200403 -119.142755 266 919ft 91kts
04-Nov-20 16:36 34.200562 -119.175232 267 463ft 90kts
04-Nov-20 16:37 34.200774 -119.203296 268 47ft 64kts
04-Nov-20 16:38 34.199817 -119.206540 91 46ft 9kts
04-Nov-20 16:39 34.199004 -119.206022 3 46ft 0kts
04-Nov-20 16:40 34.199004 -119.206022 3 46ft 0kts

Navigation Log

Ident Type
Flight plan parsing failed, navigation log unavailable